sensor_id;sensor_type;location;lat;lon;timestamp;P1;durP1;ratioP1;P2;durP2;ratioP2
8415;SDS011;4245;42.120;24.732;2022-07-29T00:02:24;9.93;;;5.37;;
8415;SDS011;4245;42.120;24.732;2022-07-29T00:04:51;7.40;;;5.47;;
8415;SDS011;4245;42.120;24.732;2022-07-29T00:07:19;9.57;;;5.63;;
8415;SDS011;4245;42.120;24.732;2022-07-29T00:09:46;8.03;;;5.87;;
8415;SDS011;4245;42.120;24.732;2022-07-29T00:12:13;7.10;;;5.13;;
8415;SDS011;4245;42.120;24.732;2022-07-29T00:14:40;10.80;;;5.47;;
8415;SDS011;4245;42.120;24.732;2022-07-29T00:17:06;8.43;;;5.57;;
8415;SDS011;4245;42.120;24.732;2022-07-29T00:19:33;10.30;;;5.60;;
8415;SDS011;4245;42.120;24.732;2022-07-29T00:22:00;5.87;;;5.10;;
8415;SDS011;4245;42.120;24.732;2022-07-29T00:24:28;5.93;;;5.33;;
8415;SDS011;4245;42.120;24.732;2022-07-29T00:26:55;7.90;;;5.87;;
8415;SDS011;4245;42.120;24.732;2022-07-29T00:29:22;7.57;;;5.63;;
8415;SDS011;4245;42.120;24.732;2022-07-29T00:31:49;7.17;;;5.50;;
8415;SDS011;4245;42.120;24.732;2022-07-29T00:34:16;14.93;;;6.33;;
8415;SDS011;4245;42.120;24.732;2022-07-29T00:37:01;7.10;;;5.53;;
8415;SDS011;4245;42.120;24.732;2022-07-29T00:39:29;7.17;;;5.97;;
8415;SDS011;4245;42.120;24.732;2022-07-29T00:41:56;8.03;;;5.67;;
8415;SDS011;4245;42.120;24.732;2022-07-29T00:44:23;8.87;;;6.10;;
8415;SDS011;4245;42.120;24.732;2022-07-29T00:46:49;8.10;;;5.53;;
8415;SDS011;4245;42.120;24.732;2022-07-29T00:49:16;7.87;;;5.43;;
8415;SDS011;4245;42.120;24.732;2022-07-29T00:51:43;7.57;;;5.50;;
8415;SDS011;4245;42.120;24.732;2022-07-29T00:54:10;7.70;;;5.50;;
8415;SDS011;4245;42.120;24.732;2022-07-29T00:56:38;6.60;;;5.87;;
8415;SDS011;4245;42.120;24.732;2022-07-29T00:59:05;9.43;;;5.80;;
8415;SDS011;4245;42.120;24.732;2022-07-29T01:01:32;9.07;;;6.57;;
8415;SDS011;4245;42.120;24.732;2022-07-29T01:03:59;7.00;;;6.30;;
8415;SDS011;4245;42.120;24.732;2022-07-29T01:06:26;9.03;;;5.97;;
8415;SDS011;4245;42.120;24.732;2022-07-29T01:08:53;11.37;;;6.67;;
8415;SDS011;4245;42.120;24.732;2022-07-29T01:11:20;14.97;;;6.30;;
8415;SDS011;4245;42.120;24.732;2022-07-29T01:13:49;8.70;;;6.17;;
8415;SDS011;4245;42.120;24.732;2022-07-29T01:16:17;7.90;;;6.30;;
8415;SDS011;4245;42.120;24.732;2022-07-29T01:18:52;11.40;;;6.90;;
8415;SDS011;4245;42.120;24.732;2022-07-29T01:21:40;9.83;;;6.17;;
8415;SDS011;4245;42.120;24.732;2022-07-29T01:24:27;8.70;;;5.97;;
8415;SDS011;4245;42.120;24.732;2022-07-29T01:27:07;9.07;;;6.07;;
8415;SDS011;4245;42.120;24.732;2022-07-29T01:29:54;10.37;;;5.80;;
8415;SDS011;4245;42.120;24.732;2022-07-29T01:32:24;10.57;;;5.60;;
8415;SDS011;4245;42.120;24.732;2022-07-29T01:34:54;10.50;;;6.53;;
8415;SDS011;4245;42.120;24.732;2022-07-29T01:37:26;6.90;;;5.80;;
8415;SDS011;4245;42.120;24.732;2022-07-29T01:39:56;8.73;;;6.13;;
8415;SDS011;4245;42.120;24.732;2022-07-29T01:42:26;5.83;;;5.20;;
8415;SDS011;4245;42.120;24.732;2022-07-29T01:45:00;10.40;;;5.87;;
8415;SDS011;4245;42.120;24.732;2022-07-29T01:47:33;7.53;;;6.13;;
8415;SDS011;4245;42.120;24.732;2022-07-29T01:50:10;8.70;;;5.97;;
8415;SDS011;4245;42.120;24.732;2022-07-29T01:52:42;6.63;;;5.97;;
8415;SDS011;4245;42.120;24.732;2022-07-29T01:55:13;6.43;;;5.60;;
8415;SDS011;4245;42.120;24.732;2022-07-29T01:57:42;8.93;;;6.60;;
8415;SDS011;4245;42.120;24.732;2022-07-29T02:00:14;8.07;;;6.00;;
8415;SDS011;4245;42.120;24.732;2022-07-29T02:02:42;8.90;;;6.13;;
8415;SDS011;4245;42.120;24.732;2022-07-29T02:05:12;8.73;;;6.60;;
8415;SDS011;4245;42.120;24.732;2022-07-29T02:07:42;8.53;;;6.83;;
8415;SDS011;4245;42.120;24.732;2022-07-29T02:10:10;9.07;;;7.37;;
8415;SDS011;4245;42.120;24.732;2022-07-29T02:12:39;8.13;;;7.00;;
8415;SDS011;4245;42.120;24.732;2022-07-29T02:15:08;8.77;;;6.90;;
8415;SDS011;4245;42.120;24.732;2022-07-29T02:17:40;9.27;;;7.30;;
8415;SDS011;4245;42.120;24.732;2022-07-29T02:20:09;9.03;;;6.67;;
8415;SDS011;4245;42.120;24.732;2022-07-29T02:22:37;8.00;;;7.10;;
8415;SDS011;4245;42.120;24.732;2022-07-29T02:25:05;8.37;;;7.57;;
8415;SDS011;4245;42.120;24.732;2022-07-29T02:27:34;9.47;;;7.80;;
8415;SDS011;4245;42.120;24.732;2022-07-29T02:30:04;9.93;;;7.43;;
8415;SDS011;4245;42.120;24.732;2022-07-29T02:32:34;8.63;;;7.73;;
8415;SDS011;4245;42.120;24.732;2022-07-29T02:35:05;11.53;;;8.17;;
8415;SDS011;4245;42.120;24.732;2022-07-29T02:37:34;9.40;;;8.20;;
8415;SDS011;4245;42.120;24.732;2022-07-29T02:40:02;11.57;;;8.37;;
8415;SDS011;4245;42.120;24.732;2022-07-29T02:42:30;9.70;;;8.70;;
8415;SDS011;4245;42.120;24.732;2022-07-29T02:45:00;10.50;;;7.83;;
8415;SDS011;4245;42.120;24.732;2022-07-29T02:47:27;11.40;;;9.23;;
8415;SDS011;4245;42.120;24.732;2022-07-29T02:50:00;11.90;;;8.53;;
8415;SDS011;4245;42.120;24.732;2022-07-29T02:52:37;16.93;;;9.00;;
8415;SDS011;4245;42.120;24.732;2022-07-29T02:55:10;14.83;;;9.57;;
8415;SDS011;4245;42.120;24.732;2022-07-29T02:57:41;11.73;;;9.47;;
8415;SDS011;4245;42.120;24.732;2022-07-29T03:00:11;9.73;;;8.73;;
8415;SDS011;4245;42.120;24.732;2022-07-29T03:02:39;11.53;;;10.20;;
8415;SDS011;4245;42.120;24.732;2022-07-29T03:05:09;11.30;;;10.10;;
8415;SDS011;4245;42.120;24.732;2022-07-29T03:07:49;13.30;;;8.87;;
8415;SDS011;4245;42.120;24.732;2022-07-29T03:10:19;11.47;;;9.80;;
8415;SDS011;4245;42.120;24.732;2022-07-29T03:12:47;13.27;;;9.63;;
8415;SDS011;4245;42.120;24.732;2022-07-29T03:15:14;12.37;;;9.40;;
8415;SDS011;4245;42.120;24.732;2022-07-29T03:17:42;16.40;;;10.07;;
8415;SDS011;4245;42.120;24.732;2022-07-29T03:20:10;12.87;;;9.47;;
8415;SDS011;4245;42.120;24.732;2022-07-29T03:22:39;14.70;;;9.87;;
8415;SDS011;4245;42.120;24.732;2022-07-29T03:25:10;12.93;;;9.43;;
8415;SDS011;4245;42.120;24.732;2022-07-29T03:27:38;9.73;;;8.63;;
8415;SDS011;4245;42.120;24.732;2022-07-29T03:30:05;14.40;;;9.23;;
8415;SDS011;4245;42.120;24.732;2022-07-29T03:32:33;10.43;;;8.00;;
8415;SDS011;4245;42.120;24.732;2022-07-29T03:35:00;10.47;;;8.83;;
8415;SDS011;4245;42.120;24.732;2022-07-29T03:37:27;10.70;;;8.30;;
8415;SDS011;4245;42.120;24.732;2022-07-29T03:39:55;11.33;;;7.50;;
8415;SDS011;4245;42.120;24.732;2022-07-29T03:42:27;15.10;;;8.53;;
8415;SDS011;4245;42.120;24.732;2022-07-29T03:44:58;9.60;;;7.60;;
8415;SDS011;4245;42.120;24.732;2022-07-29T03:47:27;9.70;;;7.53;;
8415;SDS011;4245;42.120;24.732;2022-07-29T03:49:56;11.77;;;7.97;;
8415;SDS011;4245;42.120;24.732;2022-07-29T03:52:27;12.47;;;8.37;;
8415;SDS011;4245;42.120;24.732;2022-07-29T03:54:56;12.17;;;8.10;;
8415;SDS011;4245;42.120;24.732;2022-07-29T03:57:25;13.00;;;9.20;;
8415;SDS011;4245;42.120;24.732;2022-07-29T03:59:54;12.33;;;8.63;;
8415;SDS011;4245;42.120;24.732;2022-07-29T04:02:21;12.37;;;7.40;;
8415;SDS011;4245;42.120;24.732;2022-07-29T04:04:49;14.00;;;10.03;;
8415;SDS011;4245;42.120;24.732;2022-07-29T04:07:16;11.57;;;10.37;;
8415;SDS011;4245;42.120;24.732;2022-07-29T04:09:43;13.80;;;10.33;;
8415;SDS011;4245;42.120;24.732;2022-07-29T04:12:10;15.20;;;12.60;;
8415;SDS011;4245;42.120;24.732;2022-07-29T04:14:38;15.10;;;11.53;;
8415;SDS011;4245;42.120;24.732;2022-07-29T04:17:05;12.57;;;11.23;;
8415;SDS011;4245;42.120;24.732;2022-07-29T04:19:32;11.67;;;10.50;;
8415;SDS011;4245;42.120;24.732;2022-07-29T04:21:59;15.47;;;10.70;;
8415;SDS011;4245;42.120;24.732;2022-07-29T04:24:27;18.33;;;10.80;;
8415;SDS011;4245;42.120;24.732;2022-07-29T04:26:54;14.80;;;10.97;;
8415;SDS011;4245;42.120;24.732;2022-07-29T04:29:21;17.63;;;10.63;;
8415;SDS011;4245;42.120;24.732;2022-07-29T04:31:49;20.97;;;14.20;;
8415;SDS011;4245;42.120;24.732;2022-07-29T04:34:16;19.27;;;13.90;;
8415;SDS011;4245;42.120;24.732;2022-07-29T04:36:43;26.10;;;19.87;;
8415;SDS011;4245;42.120;24.732;2022-07-29T04:39:10;23.27;;;15.40;;
8415;SDS011;4245;42.120;24.732;2022-07-29T04:41:36;18.60;;;14.43;;
8415;SDS011;4245;42.120;24.732;2022-07-29T04:44:03;27.13;;;20.23;;
8415;SDS011;4245;42.120;24.732;2022-07-29T04:46:31;29.33;;;20.90;;
8415;SDS011;4245;42.120;24.732;2022-07-29T04:48:59;27.87;;;22.03;;
8415;SDS011;4245;42.120;24.732;2022-07-29T04:51:26;29.00;;;23.80;;
8415;SDS011;4245;42.120;24.732;2022-07-29T04:53:52;19.50;;;16.10;;
8415;SDS011;4245;42.120;24.732;2022-07-29T04:56:19;26.20;;;19.10;;
8415;SDS011;4245;42.120;24.732;2022-07-29T04:58:46;19.93;;;14.70;;
8415;SDS011;4245;42.120;24.732;2022-07-29T05:01:13;22.57;;;14.50;;
8415;SDS011;4245;42.120;24.732;2022-07-29T05:03:40;18.53;;;15.17;;
8415;SDS011;4245;42.120;24.732;2022-07-29T05:06:08;22.13;;;13.93;;
8415;SDS011;4245;42.120;24.732;2022-07-29T05:08:35;19.00;;;13.20;;
8415;SDS011;4245;42.120;24.732;2022-07-29T05:11:02;16.90;;;13.53;;
8415;SDS011;4245;42.120;24.732;2022-07-29T05:13:29;23.27;;;14.20;;
8415;SDS011;4245;42.120;24.732;2022-07-29T05:15:56;14.73;;;11.60;;
8415;SDS011;4245;42.120;24.732;2022-07-29T05:18:24;14.73;;;11.97;;
8415;SDS011;4245;42.120;24.732;2022-07-29T05:20:50;15.37;;;11.47;;
8415;SDS011;4245;42.120;24.732;2022-07-29T05:23:19;14.90;;;10.88;;
8415;SDS011;4245;42.120;24.732;2022-07-29T05:25:45;15.70;;;10.73;;
8415;SDS011;4245;42.120;24.732;2022-07-29T05:28:12;16.30;;;11.27;;
8415;SDS011;4245;42.120;24.732;2022-07-29T05:30:40;16.95;;;10.02;;
8415;SDS011;4245;42.120;24.732;2022-07-29T05:33:09;17.77;;;9.95;;
8415;SDS011;4245;42.120;24.732;2022-07-29T05:35:36;15.90;;;11.10;;
8415;SDS011;4245;42.120;24.732;2022-07-29T05:38:03;13.52;;;10.18;;
8415;SDS011;4245;42.120;24.732;2022-07-29T05:40:31;13.32;;;9.27;;
8415;SDS011;4245;42.120;24.732;2022-07-29T05:42:59;11.93;;;9.50;;
8415;SDS011;4245;42.120;24.732;2022-07-29T05:45:26;9.88;;;8.88;;
8415;SDS011;4245;42.120;24.732;2022-07-29T05:47:52;15.52;;;9.38;;
8415;SDS011;4245;42.120;24.732;2022-07-29T05:50:19;12.43;;;9.07;;
8415;SDS011;4245;42.120;24.732;2022-07-29T05:52:46;13.95;;;8.52;;
8415;SDS011;4245;42.120;24.732;2022-07-29T05:55:13;14.60;;;8.73;;
8415;SDS011;4245;42.120;24.732;2022-07-29T05:57:41;14.18;;;8.60;;
8415;SDS011;4245;42.120;24.732;2022-07-29T06:00:10;10.50;;;8.55;;
8415;SDS011;4245;42.120;24.732;2022-07-29T06:02:38;13.80;;;8.50;;
8415;SDS011;4245;42.120;24.732;2022-07-29T06:05:05;12.95;;;8.40;;
8415;SDS011;4245;42.120;24.732;2022-07-29T06:07:33;11.57;;;8.85;;
8415;SDS011;4245;42.120;24.732;2022-07-29T06:10:00;11.88;;;9.27;;
8415;SDS011;4245;42.120;24.732;2022-07-29T06:12:26;11.60;;;9.98;;
8415;SDS011;4245;42.120;24.732;2022-07-29T06:14:55;10.27;;;8.15;;
8415;SDS011;4245;42.120;24.732;2022-07-29T06:17:22;11.45;;;8.65;;
8415;SDS011;4245;42.120;24.732;2022-07-29T06:19:48;12.18;;;8.27;;
8415;SDS011;4245;42.120;24.732;2022-07-29T06:22:15;10.90;;;9.32;;
8415;SDS011;4245;42.120;24.732;2022-07-29T06:24:42;14.85;;;9.98;;
8415;SDS011;4245;42.120;24.732;2022-07-29T06:27:09;12.95;;;9.30;;
8415;SDS011;4245;42.120;24.732;2022-07-29T06:29:36;11.68;;;8.48;;
8415;SDS011;4245;42.120;24.732;2022-07-29T06:32:05;12.93;;;9.27;;
8415;SDS011;4245;42.120;24.732;2022-07-29T06:34:34;10.57;;;8.50;;
8415;SDS011;4245;42.120;24.732;2022-07-29T06:37:02;10.75;;;8.98;;
8415;SDS011;4245;42.120;24.732;2022-07-29T06:39:33;11.45;;;9.02;;
8415;SDS011;4245;42.120;24.732;2022-07-29T06:42:00;12.50;;;9.27;;
8415;SDS011;4245;42.120;24.732;2022-07-29T06:47:02;11.25;;;9.27;;
8415;SDS011;4245;42.120;24.732;2022-07-29T06:49:30;15.57;;;10.02;;
8415;SDS011;4245;42.120;24.732;2022-07-29T06:51:57;12.38;;;9.20;;
8415;SDS011;4245;42.120;24.732;2022-07-29T06:54:23;14.35;;;9.30;;
8415;SDS011;4245;42.120;24.732;2022-07-29T06:56:50;11.57;;;9.02;;
8415;SDS011;4245;42.120;24.732;2022-07-29T06:59:17;9.68;;;8.75;;
8415;SDS011;4245;42.120;24.732;2022-07-29T07:01:44;12.50;;;9.15;;
8415;SDS011;4245;42.120;24.732;2022-07-29T07:04:11;10.20;;;8.52;;
8415;SDS011;4245;42.120;24.732;2022-07-29T07:06:39;14.88;;;8.98;;
8415;SDS011;4245;42.120;24.732;2022-07-29T07:09:06;9.25;;;8.23;;
8415;SDS011;4245;42.120;24.732;2022-07-29T07:11:33;15.45;;;9.57;;
8415;SDS011;4245;42.120;24.732;2022-07-29T07:14:00;9.65;;;8.38;;
8415;SDS011;4245;42.120;24.732;2022-07-29T07:16:27;9.15;;;8.27;;
8415;SDS011;4245;42.120;24.732;2022-07-29T07:18:54;11.65;;;8.18;;
8415;SDS011;4245;42.120;24.732;2022-07-29T07:21:20;8.38;;;7.47;;
8415;SDS011;4245;42.120;24.732;2022-07-29T07:23:49;11.73;;;8.48;;
8415;SDS011;4245;42.120;24.732;2022-07-29T07:26:15;9.65;;;8.50;;
8415;SDS011;4245;42.120;24.732;2022-07-29T07:28:42;9.48;;;8.35;;
8415;SDS011;4245;42.120;24.732;2022-07-29T07:31:09;11.30;;;8.10;;
8415;SDS011;4245;42.120;24.732;2022-07-29T07:33:36;11.30;;;8.10;;
8415;SDS011;4245;42.120;24.732;2022-07-29T07:36:03;9.30;;;8.18;;
8415;SDS011;4245;42.120;24.732;2022-07-29T07:38:30;11.70;;;7.90;;
8415;SDS011;4245;42.120;24.732;2022-07-29T07:40:58;12.98;;;7.85;;
8415;SDS011;4245;42.120;24.732;2022-07-29T07:43:26;12.75;;;8.07;;
8415;SDS011;4245;42.120;24.732;2022-07-29T07:45:53;8.65;;;7.75;;
8415;SDS011;4245;42.120;24.732;2022-07-29T07:48:20;8.85;;;7.80;;
8415;SDS011;4245;42.120;24.732;2022-07-29T07:50:46;7.90;;;6.70;;
8415;SDS011;4245;42.120;24.732;2022-07-29T07:53:14;8.25;;;7.30;;
8415;SDS011;4245;42.120;24.732;2022-07-29T07:55:41;12.75;;;7.78;;
8415;SDS011;4245;42.120;24.732;2022-07-29T07:58:10;10.80;;;8.45;;
8415;SDS011;4245;42.120;24.732;2022-07-29T08:00:36;10.07;;;7.10;;
8415;SDS011;4245;42.120;24.732;2022-07-29T08:03:03;10.55;;;7.45;;
8415;SDS011;4245;42.120;24.732;2022-07-29T08:05:30;9.43;;;5.85;;
8415;SDS011;4245;42.120;24.732;2022-07-29T08:07:57;7.30;;;4.85;;
8415;SDS011;4245;42.120;24.732;2022-07-29T08:10:24;5.10;;;4.45;;
8415;SDS011;4245;42.120;24.732;2022-07-29T08:13:10;5.15;;;4.65;;
8415;SDS011;4245;42.120;24.732;2022-07-29T08:15:38;7.40;;;5.38;;
8415;SDS011;4245;42.120;24.732;2022-07-29T08:18:06;9.68;;;5.50;;
8415;SDS011;4245;42.120;24.732;2022-07-29T08:20:33;6.15;;;5.45;;
8415;SDS011;4245;42.120;24.732;2022-07-29T08:23:00;5.90;;;5.22;;
8415;SDS011;4245;42.120;24.732;2022-07-29T08:25:27;5.55;;;5.05;;
8415;SDS011;4245;42.120;24.732;2022-07-29T08:27:54;6.47;;;5.00;;
8415;SDS011;4245;42.120;24.732;2022-07-29T08:30:22;7.50;;;5.05;;
8415;SDS011;4245;42.120;24.732;2022-07-29T08:32:49;5.47;;;4.97;;
8415;SDS011;4245;42.120;24.732;2022-07-29T08:35:18;7.07;;;5.20;;
8415;SDS011;4245;42.120;24.732;2022-07-29T08:37:45;5.75;;;5.18;;
8415;SDS011;4245;42.120;24.732;2022-07-29T08:40:11;7.55;;;5.13;;
8415;SDS011;4245;42.120;24.732;2022-07-29T08:42:39;6.30;;;4.80;;
8415;SDS011;4245;42.120;24.732;2022-07-29T08:45:06;10.68;;;5.40;;
8415;SDS011;4245;42.120;24.732;2022-07-29T08:47:35;12.18;;;6.35;;
8415;SDS011;4245;42.120;24.732;2022-07-29T08:50:04;8.93;;;6.25;;
8415;SDS011;4245;42.120;24.732;2022-07-29T08:52:32;8.52;;;6.80;;
8415;SDS011;4245;42.120;24.732;2022-07-29T08:55:03;10.60;;;5.68;;
8415;SDS011;4245;42.120;24.732;2022-07-29T08:57:31;10.50;;;6.10;;
8415;SDS011;4245;42.120;24.732;2022-07-29T09:00:00;9.80;;;6.13;;
8415;SDS011;4245;42.120;24.732;2022-07-29T09:02:28;11.30;;;5.72;;
8415;SDS011;4245;42.120;24.732;2022-07-29T09:05:00;8.07;;;5.63;;
8415;SDS011;4245;42.120;24.732;2022-07-29T09:07:28;10.00;;;5.93;;
8415;SDS011;4245;42.120;24.732;2022-07-29T09:09:55;9.98;;;6.22;;
8415;SDS011;4245;42.120;24.732;2022-07-29T09:12:22;12.85;;;6.00;;
8415;SDS011;4245;42.120;24.732;2022-07-29T09:14:50;12.13;;;6.25;;
8415;SDS011;4245;42.120;24.732;2022-07-29T09:17:17;7.05;;;4.80;;
8415;SDS011;4245;42.120;24.732;2022-07-29T09:19:44;6.35;;;4.47;;
8415;SDS011;4245;42.120;24.732;2022-07-29T09:22:13;6.88;;;4.25;;
8415;SDS011;4245;42.120;24.732;2022-07-29T09:24:56;7.28;;;4.45;;
8415;SDS011;4245;42.120;24.732;2022-07-29T09:27:23;6.10;;;5.20;;
8415;SDS011;4245;42.120;24.732;2022-07-29T09:29:57;4.88;;;4.40;;
8415;SDS011;4245;42.120;24.732;2022-07-29T09:32:25;7.50;;;4.35;;
8415;SDS011;4245;42.120;24.732;2022-07-29T09:37:42;5.18;;;3.85;;
8415;SDS011;4245;42.120;24.732;2022-07-29T09:40:14;4.35;;;3.95;;
8415;SDS011;4245;42.120;24.732;2022-07-29T09:42:42;4.18;;;3.75;;
8415;SDS011;4245;42.120;24.732;2022-07-29T09:45:09;4.45;;;4.05;;
8415;SDS011;4245;42.120;24.732;2022-07-29T09:47:40;5.88;;;5.32;;
8415;SDS011;4245;42.120;24.732;2022-07-29T09:50:10;4.43;;;4.00;;
8415;SDS011;4245;42.120;24.732;2022-07-29T09:52:46;6.47;;;3.75;;
8415;SDS011;4245;42.120;24.732;2022-07-29T09:55:13;4.30;;;3.90;;
8415;SDS011;4245;42.120;24.732;2022-07-29T09:57:41;4.50;;;3.55;;
8415;SDS011;4245;42.120;24.732;2022-07-29T10:00:09;6.95;;;3.45;;
8415;SDS011;4245;42.120;24.732;2022-07-29T10:02:40;4.05;;;3.28;;
8415;SDS011;4245;42.120;24.732;2022-07-29T10:05:16;5.07;;;3.60;;
8415;SDS011;4245;42.120;24.732;2022-07-29T10:07:47;4.90;;;3.72;;
8415;SDS011;4245;42.120;24.732;2022-07-29T10:10:18;4.60;;;3.80;;
8415;SDS011;4245;42.120;24.732;2022-07-29T10:12:50;4.18;;;3.38;;
8415;SDS011;4245;42.120;24.732;2022-07-29T10:15:19;7.25;;;3.75;;
8415;SDS011;4245;42.120;24.732;2022-07-29T10:17:49;4.28;;;3.70;;
8415;SDS011;4245;42.120;24.732;2022-07-29T10:20:17;5.72;;;3.67;;
8415;SDS011;4245;42.120;24.732;2022-07-29T10:22:45;3.97;;;3.42;;
8415;SDS011;4245;42.120;24.732;2022-07-29T10:25:14;4.18;;;3.70;;
8415;SDS011;4245;42.120;24.732;2022-07-29T10:27:41;7.43;;;3.88;;
8415;SDS011;4245;42.120;24.732;2022-07-29T10:30:09;3.92;;;3.60;;
8415;SDS011;4245;42.120;24.732;2022-07-29T10:35:45;4.10;;;3.70;;
8415;SDS011;4245;42.120;24.732;2022-07-29T10:38:37;5.10;;;4.18;;
8415;SDS011;4245;42.120;24.732;2022-07-29T10:41:21;6.35;;;3.50;;
8415;SDS011;4245;42.120;24.732;2022-07-29T10:44:01;5.97;;;3.63;;
8415;SDS011;4245;42.120;24.732;2022-07-29T10:46:37;7.53;;;3.92;;
8415;SDS011;4245;42.120;24.732;2022-07-29T10:49:08;3.92;;;3.60;;
8415;SDS011;4245;42.120;24.732;2022-07-29T10:51:59;4.07;;;3.20;;
8415;SDS011;4245;42.120;24.732;2022-07-29T10:54:48;4.38;;;3.85;;
8415;SDS011;4245;42.120;24.732;2022-07-29T10:57:21;7.95;;;3.83;;
8415;SDS011;4245;42.120;24.732;2022-07-29T11:02:57;4.00;;;3.60;;
8415;SDS011;4245;42.120;24.732;2022-07-29T11:05:25;4.78;;;4.20;;
8415;SDS011;4245;42.120;24.732;2022-07-29T11:10:46;4.85;;;4.05;;
8415;SDS011;4245;42.120;24.732;2022-07-29T11:16:11;11.63;;;3.75;;
8415;SDS011;4245;42.120;24.732;2022-07-29T11:18:46;8.45;;;4.03;;
8415;SDS011;4245;42.120;24.732;2022-07-29T11:21:46;8.30;;;4.28;;
8415;SDS011;4245;42.120;24.732;2022-07-29T11:24:15;5.88;;;4.70;;
8415;SDS011;4245;42.120;24.732;2022-07-29T11:26:47;6.80;;;3.97;;
8415;SDS011;4245;42.120;24.732;2022-07-29T11:29:52;6.55;;;4.68;;
8415;SDS011;4245;42.120;24.732;2022-07-29T11:32:20;6.53;;;4.30;;
8415;SDS011;4245;42.120;24.732;2022-07-29T11:34:49;6.10;;;4.50;;
8415;SDS011;4245;42.120;24.732;2022-07-29T11:37:36;7.57;;;5.03;;
8415;SDS011;4245;42.120;24.732;2022-07-29T11:40:18;8.10;;;5.90;;
8415;SDS011;4245;42.120;24.732;2022-07-29T11:42:48;11.63;;;6.75;;
8415;SDS011;4245;42.120;24.732;2022-07-29T11:45:19;8.45;;;6.32;;
8415;SDS011;4245;42.120;24.732;2022-07-29T11:47:55;6.82;;;5.20;;
8415;SDS011;4245;42.120;24.732;2022-07-29T11:50:30;6.80;;;5.20;;
8415;SDS011;4245;42.120;24.732;2022-07-29T11:52:59;8.00;;;4.85;;
8415;SDS011;4245;42.120;24.732;2022-07-29T11:55:26;7.30;;;4.63;;
8415;SDS011;4245;42.120;24.732;2022-07-29T11:57:55;6.95;;;4.93;;
8415;SDS011;4245;42.120;24.732;2022-07-29T12:00:25;5.03;;;4.22;;
8415;SDS011;4245;42.120;24.732;2022-07-29T12:02:54;5.65;;;3.78;;
8415;SDS011;4245;42.120;24.732;2022-07-29T12:05:29;4.70;;;4.20;;
8415;SDS011;4245;42.120;24.732;2022-07-29T12:08:04;4.68;;;4.18;;
8415;SDS011;4245;42.120;24.732;2022-07-29T12:10:32;8.88;;;4.45;;
8415;SDS011;4245;42.120;24.732;2022-07-29T12:13:01;7.65;;;4.57;;
8415;SDS011;4245;42.120;24.732;2022-07-29T12:15:28;4.38;;;3.92;;
8415;SDS011;4245;42.120;24.732;2022-07-29T12:17:55;4.65;;;3.90;;
8415;SDS011;4245;42.120;24.732;2022-07-29T12:20:22;5.65;;;3.95;;
8415;SDS011;4245;42.120;24.732;2022-07-29T12:22:50;5.10;;;3.97;;
8415;SDS011;4245;42.120;24.732;2022-07-29T12:25:20;6.22;;;4.63;;
8415;SDS011;4245;42.120;24.732;2022-07-29T12:27:47;5.30;;;4.57;;
8415;SDS011;4245;42.120;24.732;2022-07-29T12:30:33;5.65;;;4.05;;
8415;SDS011;4245;42.120;24.732;2022-07-29T12:33:11;5.18;;;4.40;;
8415;SDS011;4245;42.120;24.732;2022-07-29T12:35:39;5.60;;;4.07;;
8415;SDS011;4245;42.120;24.732;2022-07-29T12:38:09;6.65;;;5.18;;
8415;SDS011;4245;42.120;24.732;2022-07-29T12:40:36;5.15;;;4.03;;
8415;SDS011;4245;42.120;24.732;2022-07-29T12:43:07;4.10;;;3.70;;
8415;SDS011;4245;42.120;24.732;2022-07-29T12:45:37;5.47;;;3.97;;
8415;SDS011;4245;42.120;24.732;2022-07-29T12:48:05;4.10;;;3.42;;
8415;SDS011;4245;42.120;24.732;2022-07-29T12:50:34;7.60;;;3.60;;
8415;SDS011;4245;42.120;24.732;2022-07-29T12:53:08;6.72;;;3.53;;
8415;SDS011;4245;42.120;24.732;2022-07-29T12:55:40;6.00;;;3.50;;
8415;SDS011;4245;42.120;24.732;2022-07-29T12:58:08;4.10;;;3.72;;
8415;SDS011;4245;42.120;24.732;2022-07-29T13:00:36;3.90;;;3.50;;
8415;SDS011;4245;42.120;24.732;2022-07-29T13:03:03;5.13;;;3.85;;
8415;SDS011;4245;42.120;24.732;2022-07-29T13:05:40;8.18;;;4.20;;
8415;SDS011;4245;42.120;24.732;2022-07-29T13:08:09;5.03;;;4.30;;
8415;SDS011;4245;42.120;24.732;2022-07-29T13:10:37;6.32;;;3.95;;
8415;SDS011;4245;42.120;24.732;2022-07-29T13:13:05;6.55;;;4.13;;
8415;SDS011;4245;42.120;24.732;2022-07-29T13:15:35;4.50;;;3.92;;
8415;SDS011;4245;42.120;24.732;2022-07-29T13:18:05;7.85;;;4.18;;
8415;SDS011;4245;42.120;24.732;2022-07-29T13:20:52;7.55;;;4.10;;
8415;SDS011;4245;42.120;24.732;2022-07-29T13:23:19;5.47;;;4.07;;
8415;SDS011;4245;42.120;24.732;2022-07-29T13:25:46;6.47;;;4.20;;
8415;SDS011;4245;42.120;24.732;2022-07-29T13:28:13;5.78;;;4.18;;
8415;SDS011;4245;42.120;24.732;2022-07-29T13:30:41;8.82;;;4.63;;
8415;SDS011;4245;42.120;24.732;2022-07-29T13:33:09;6.88;;;4.15;;
8415;SDS011;4245;42.120;24.732;2022-07-29T13:35:35;6.75;;;4.13;;
8415;SDS011;4245;42.120;24.732;2022-07-29T13:38:02;5.85;;;4.50;;
8415;SDS011;4245;42.120;24.732;2022-07-29T13:40:29;7.47;;;4.60;;
8415;SDS011;4245;42.120;24.732;2022-07-29T13:42:56;5.75;;;4.32;;
8415;SDS011;4245;42.120;24.732;2022-07-29T13:45:23;6.85;;;4.30;;
8415;SDS011;4245;42.120;24.732;2022-07-29T13:47:51;7.30;;;4.30;;
8415;SDS011;4245;42.120;24.732;2022-07-29T13:50:18;5.32;;;4.38;;
8415;SDS011;4245;42.120;24.732;2022-07-29T13:52:44;5.03;;;4.20;;
8415;SDS011;4245;42.120;24.732;2022-07-29T13:55:13;4.80;;;4.40;;
8415;SDS011;4245;42.120;24.732;2022-07-29T13:57:39;4.28;;;3.88;;
8415;SDS011;4245;42.120;24.732;2022-07-29T14:00:07;5.85;;;4.50;;
8415;SDS011;4245;42.120;24.732;2022-07-29T14:02:35;8.13;;;4.72;;
8415;SDS011;4245;42.120;24.732;2022-07-29T14:05:05;6.50;;;4.30;;
8415;SDS011;4245;42.120;24.732;2022-07-29T14:07:32;5.78;;;4.40;;
8415;SDS011;4245;42.120;24.732;2022-07-29T14:09:59;4.55;;;4.05;;
8415;SDS011;4245;42.120;24.732;2022-07-29T14:12:26;4.70;;;3.90;;
8415;SDS011;4245;42.120;24.732;2022-07-29T14:14:53;8.63;;;4.28;;
8415;SDS011;4245;42.120;24.732;2022-07-29T14:17:20;7.50;;;4.32;;
8415;SDS011;4245;42.120;24.732;2022-07-29T14:19:47;5.88;;;4.05;;
8415;SDS011;4245;42.120;24.732;2022-07-29T14:22:16;5.22;;;3.80;;
8415;SDS011;4245;42.120;24.732;2022-07-29T14:24:44;7.00;;;4.10;;
8415;SDS011;4245;42.120;24.732;2022-07-29T14:27:11;5.45;;;4.05;;
8415;SDS011;4245;42.120;24.732;2022-07-29T14:29:38;4.72;;;3.80;;
8415;SDS011;4245;42.120;24.732;2022-07-29T14:32:04;6.05;;;3.67;;
8415;SDS011;4245;42.120;24.732;2022-07-29T14:34:32;4.45;;;3.33;;
8415;SDS011;4245;42.120;24.732;2022-07-29T14:36:59;4.10;;;3.65;;
8415;SDS011;4245;42.120;24.732;2022-07-29T14:39:27;8.02;;;3.70;;
8415;SDS011;4245;42.120;24.732;2022-07-29T14:41:54;4.97;;;3.70;;
8415;SDS011;4245;42.120;24.732;2022-07-29T14:44:21;5.22;;;3.78;;
8415;SDS011;4245;42.120;24.732;2022-07-29T14:46:48;5.05;;;3.78;;
8415;SDS011;4245;42.120;24.732;2022-07-29T14:49:15;7.00;;;4.00;;
8415;SDS011;4245;42.120;24.732;2022-07-29T14:51:42;4.60;;;4.00;;
8415;SDS011;4245;42.120;24.732;2022-07-29T14:54:09;5.80;;;3.80;;
8415;SDS011;4245;42.120;24.732;2022-07-29T14:56:37;7.80;;;4.32;;
8415;SDS011;4245;42.120;24.732;2022-07-29T14:59:04;5.40;;;4.20;;
8415;SDS011;4245;42.120;24.732;2022-07-29T15:01:31;5.35;;;3.95;;
8415;SDS011;4245;42.120;24.732;2022-07-29T15:03:57;5.45;;;4.00;;
8415;SDS011;4245;42.120;24.732;2022-07-29T15:06:24;4.20;;;3.80;;
8415;SDS011;4245;42.120;24.732;2022-07-29T15:08:51;5.88;;;3.80;;
8415;SDS011;4245;42.120;24.732;2022-07-29T15:11:18;5.63;;;3.90;;
8415;SDS011;4245;42.120;24.732;2022-07-29T15:13:47;4.28;;;3.80;;
8415;SDS011;4245;42.120;24.732;2022-07-29T15:16:14;7.25;;;3.50;;
8415;SDS011;4245;42.120;24.732;2022-07-29T15:18:41;4.10;;;3.70;;
8415;SDS011;4245;42.120;24.732;2022-07-29T15:21:08;4.93;;;3.63;;
8415;SDS011;4245;42.120;24.732;2022-07-29T15:23:35;6.50;;;3.80;;
8415;SDS011;4245;42.120;24.732;2022-07-29T15:26:02;5.05;;;4.22;;